Time;durP1;ratioP1;P1;durP2;ratioP2;P2;SDS_P1;SDS_P2;PMS_P1;PMS_P2;Temp;Humidity;BMP_temperature;BMP_pressure;BME280_temperature;BME280_humidity;BME280_pressure;Samples;Min_cycle;Max_cycle;Signal;HPM_P1;HPM_P2
2023/11/07 00:00:11;;;;;;;1.48;0.70;;;9.10;91.10;;;;;;5063626;28;20067;-74
2023/11/07 00:02:36;;;;;;;1.13;0.77;;;9.00;91.00;;;;;;5097473;28;20039;-74
2023/11/07 00:05:03;;;;;;;1.75;0.80;;;9.00;91.00;;;;;;5097174;28;20396;-74
2023/11/07 00:07:29;;;;;;;1.88;1.00;;;9.10;91.00;;;;;;5063716;28;20040;-74
2023/11/07 00:09:54;;;;;;;1.20;0.80;;;9.10;91.00;;;;;;5095883;28;20475;-73
2023/11/07 00:12:21;;;;;;;1.00;0.70;;;9.00;91.00;;;;;;5115314;28;20081;-73
2023/11/07 00:14:47;;;;;;;0.73;0.60;;;9.00;91.00;;;;;;5115198;28;20143;-73
2023/11/07 00:17:12;;;;;;;1.83;1.00;;;9.10;91.00;;;;;;5097549;28;20512;-73
2023/11/07 00:19:38;;;;;;;2.67;0.73;;;9.10;91.10;;;;;;5115599;28;20127;-74
2023/11/07 00:22:04;;;;;;;1.85;0.90;;;9.00;91.00;;;;;;5096764;28;20046;-73
2023/11/07 00:24:30;;;;;;;2.03;0.88;;;9.00;91.00;;;;;;5097331;28;20180;-73
2023/11/07 00:26:57;;;;;;;1.13;0.70;;;8.90;91.00;;;;;;5097084;28;20040;-73
2023/11/07 00:29:25;;;;;;;1.67;0.73;;;9.00;91.00;;;;;;5114863;28;20050;-73
2023/11/07 00:31:52;;;;;;;1.30;0.93;;;9.00;91.10;;;;;;5114807;28;20120;-73
2023/11/07 00:34:19;;;;;;;0.57;0.57;;;9.00;91.10;;;;;;5096837;28;20549;-73
2023/11/07 00:36:48;;;;;;;2.47;0.90;;;9.00;91.10;;;;;;5097333;28;20152;-73
2023/11/07 00:39:16;;;;;;;1.15;0.60;;;9.00;91.10;;;;;;5115041;28;20043;-73
2023/11/07 00:41:42;;;;;;;1.10;0.70;;;9.00;91.10;;;;;;5096544;28;20035;-74
2023/11/07 00:44:08;;;;;;;1.23;0.70;;;9.00;91.10;;;;;;5096525;28;20078;-73
2023/11/07 00:46:33;;;;;;;1.85;0.80;;;9.10;91.10;;;;;;5079465;28;20059;-73
2023/11/07 00:48:59;;;;;;;0.60;0.50;;;9.00;91.10;;;;;;5114612;28;20093;-73
2023/11/07 00:51:25;;;;;;;2.80;0.82;;;9.00;91.10;;;;;;5096294;28;20447;-73
2023/11/07 00:53:52;;;;;;;1.58;0.70;;;9.00;91.10;;;;;;5094349;28;20044;-73
2023/11/07 00:56:17;;;;;;;0.60;0.50;;;9.00;91.10;;;;;;5114552;28;20084;-73
2023/11/07 00:58:43;;;;;;;0.82;0.50;;;9.00;91.10;;;;;;5096599;28;20044;-73
2023/11/07 01:01:09;;;;;;;3.03;1.00;;;9.00;91.20;;;;;;5115026;28;20032;-73
2023/11/07 01:03:35;;;;;;;2.00;0.80;;;9.00;91.20;;;;;;5095694;28;20100;-73
2023/11/07 01:06:01;;;;;;;1.20;0.60;;;8.90;91.20;;;;;;5114298;28;20031;-73
2023/11/07 01:08:27;;;;;;;0.98;0.68;;;8.90;91.20;;;;;;5096070;28;20036;-73
2023/11/07 01:10:53;;;;;;;1.00;0.68;;;8.90;91.20;;;;;;5078945;28;20409;-73
2023/11/07 01:13:19;;;;;;;1.73;0.75;;;8.80;91.20;;;;;;5114083;28;20051;-73
2023/11/07 01:15:45;;;;;;;0.88;0.50;;;8.90;91.20;;;;;;5113844;28;20044;-73
2023/11/07 01:18:11;;;;;;;2.03;0.80;;;8.90;91.20;;;;;;5114599;28;20043;-73
2023/11/07 01:20:37;;;;;;;1.33;0.55;;;8.90;91.20;;;;;;5079059;28;20090;-73
2023/11/07 01:23:03;;;;;;;1.10;0.60;;;8.90;91.20;;;;;;5113901;28;20067;-73
2023/11/07 01:25:29;;;;;;;2.17;0.60;;;8.90;91.30;;;;;;5078928;28;20486;-73
2023/11/07 01:27:55;;;;;;;1.30;0.52;;;8.90;91.30;;;;;;5113729;28;20504;-73
2023/11/07 01:30:21;;;;;;;1.48;0.68;;;8.90;91.20;;;;;;5113843;28;20105;-73
2023/11/07 01:32:49;;;;;;;1.33;0.60;;;8.80;91.20;;;;;;5095337;28;20131;-73
2023/11/07 01:35:16;;;;;;;1.02;0.68;;;8.90;91.30;;;;;;5095290;28;20027;-72
2023/11/07 01:37:42;;;;;;;1.80;0.70;;;8.80;91.20;;;;;;5095558;28;20118;-73
2023/11/07 01:40:09;;;;;;;0.75;0.50;;;8.90;91.30;;;;;;5113759;28;20074;-72
2023/11/07 01:42:43;;;;;;;1.88;0.90;;;8.90;91.30;;;;;;5095781;28;20043;-72
2023/11/07 01:45:10;;;;;;;0.88;0.50;;;8.90;91.30;;;;;;5113563;28;20088;-73
2023/11/07 01:47:37;;;;;;;0.65;0.60;;;8.90;91.30;;;;;;5078873;28;20039;-73
2023/11/07 01:50:04;;;;;;;0.98;0.60;;;8.80;91.30;;;;;;5095370;28;20047;-73
2023/11/07 01:52:30;;;;;;;1.48;0.68;;;8.80;91.30;;;;;;5113465;28;20122;-73
2023/11/07 01:54:58;;;;;;;0.75;0.43;;;8.80;91.30;;;;;;5113511;28;20047;-72
2023/11/07 01:57:24;;;;;;;2.00;0.57;;;8.80;91.30;;;;;;5095361;28;20035;-73
2023/11/07 01:59:52;;;;;;;1.17;0.60;;;8.80;91.30;;;;;;5077956;28;20390;-73
2023/11/07 02:02:19;;;;;;;0.55;0.40;;;8.90;91.30;;;;;;5113322;28;20047;-73
2023/11/07 02:04:46;;;;;;;0.60;0.40;;;8.90;91.30;;;;;;5095483;28;20108;-73
2023/11/07 02:07:12;;;;;;;0.65;0.40;;;8.80;91.30;;;;;;5113663;28;20038;-73
2023/11/07 02:09:39;;;;;;;2.15;0.70;;;8.80;91.30;;;;;;5113641;28;20040;-73
2023/11/07 02:12:05;;;;;;;0.40;0.40;;;8.80;91.30;;;;;;5113196;28;20490;-72
2023/11/07 02:14:35;;;;;;;0.68;0.45;;;8.80;91.30;;;;;;5094682;28;20116;-72
2023/11/07 02:17:01;;;;;;;0.63;0.50;;;8.90;91.30;;;;;;5095096;28;20042;-72
2023/11/07 02:19:27;;;;;;;1.05;0.40;;;8.80;91.30;;;;;;5113312;28;20039;-74
2023/11/07 02:21:59;;;;;;;1.10;0.50;;;8.80;91.30;;;;;;5112772;28;20044;-73
2023/11/07 02:24:25;;;;;;;0.70;0.50;;;8.80;91.30;;;;;;5077941;28;20485;-72
2023/11/07 02:26:55;;;;;;;0.90;0.70;;;8.80;91.30;;;;;;5113204;28;20459;-73
2023/11/07 02:29:21;;;;;;;1.48;0.57;;;8.80;91.30;;;;;;5078385;28;20115;-73
2023/11/07 02:31:47;;;;;;;1.30;0.40;;;8.80;91.30;;;;;;5093973;28;20473;-72
2023/11/07 02:34:13;;;;;;;1.05;0.60;;;8.80;91.30;;;;;;5095218;28;20488;-73
2023/11/07 02:36:39;;;;;;;0.30;0.30;;;8.80;91.30;;;;;;5112792;28;20043;-73
2023/11/07 02:39:07;;;;;;;0.98;0.50;;;8.80;91.40;;;;;;5094673;28;20047;-73
2023/11/07 02:41:33;;;;;;;0.70;0.32;;;8.80;91.40;;;;;;5112900;28;20559;-73
2023/11/07 02:43:59;;;;;;;2.35;0.60;;;8.80;91.40;;;;;;5112608;28;20519;-73
2023/11/07 02:46:26;;;;;;;0.65;0.50;;;8.80;91.40;;;;;;5094511;28;20074;-72
2023/11/07 02:48:52;;;;;;;0.93;0.60;;;8.80;91.40;;;;;;5077865;28;20093;-72
2023/11/07 02:51:18;;;;;;;0.65;0.43;;;8.80;91.40;;;;;;5092777;28;20044;-72
2023/11/07 02:53:45;;;;;;;0.50;0.50;;;8.80;91.40;;;;;;5094307;28;20059;-72
2023/11/07 02:56:11;;;;;;;2.17;0.60;;;8.80;91.40;;;;;;5094215;28;20042;-72
2023/11/07 02:58:37;;;;;;;1.35;0.63;;;8.90;91.40;;;;;;5112507;28;20032;-73
2023/11/07 03:01:03;;;;;;;1.17;0.60;;;8.80;91.40;;;;;;5094072;28;20039;-73
2023/11/07 03:03:30;;;;;;;1.63;0.70;;;8.80;91.40;;;;;;5112289;28;20050;-73
2023/11/07 03:05:56;;;;;;;1.38;0.57;;;8.80;91.40;;;;;;5094454;28;20036;-72
2023/11/07 03:08:21;;;;;;;1.00;0.52;;;8.80;91.40;;;;;;5094086;28;20044;-73
2023/11/07 03:10:47;;;;;;;0.85;0.60;;;8.80;91.40;;;;;;5112621;28;20079;-73
2023/11/07 03:13:13;;;;;;;0.65;0.45;;;8.80;91.40;;;;;;5112489;28;20092;-73
2023/11/07 03:15:39;;;;;;;0.98;0.55;;;8.80;91.40;;;;;;5094080;28;20155;-73
2023/11/07 03:18:05;;;;;;;0.52;0.40;;;8.80;91.40;;;;;;5076840;28;20069;-73
2023/11/07 03:20:32;;;;;;;1.60;0.68;;;8.80;91.40;;;;;;5077272;28;20146;-73
2023/11/07 03:22:58;;;;;;;1.73;0.63;;;8.80;91.40;;;;;;5112540;28;20071;-73
2023/11/07 03:25:25;;;;;;;1.30;0.60;;;8.80;91.40;;;;;;5112418;28;20047;-73
2023/11/07 03:27:51;;;;;;;0.40;0.40;;;8.80;91.40;;;;;;5077163;28;20100;-72
2023/11/07 03:30:17;;;;;;;1.27;0.50;;;8.80;91.40;;;;;;5093644;28;20055;-72
2023/11/07 03:32:44;;;;;;;0.77;0.50;;;8.80;91.40;;;;;;5093731;28;20465;-73
2023/11/07 03:35:10;;;;;;;1.23;0.60;;;8.80;91.50;;;;;;5111977;28;20172;-73
2023/11/07 03:37:35;;;;;;;1.10;0.52;;;8.80;91.50;;;;;;5093931;28;20540;-73
2023/11/07 03:40:03;;;;;;;1.60;0.43;;;8.90;91.50;;;;;;5112280;28;20089;-73
2023/11/07 03:42:29;;;;;;;1.20;0.80;;;8.90;91.50;;;;;;5094136;28;20048;-73
2023/11/07 03:44:54;;;;;;;0.90;0.60;;;8.80;91.40;;;;;;5115423;28;20122;-73
2023/11/07 03:47:21;;;;;;;0.35;0.35;;;8.90;91.40;;;;;;5115711;28;20131;-72
2023/11/07 03:49:47;;;;;;;1.38;0.60;;;8.90;91.40;;;;;;5096802;28;20055;-73
2023/11/07 03:52:14;;;;;;;3.08;0.77;;;8.90;91.40;;;;;;5096994;28;20032;-72
2023/11/07 03:54:39;;;;;;;1.52;0.77;;;8.90;91.40;;;;;;5115245;28;20108;-73
2023/11/07 03:57:05;;;;;;;2.30;0.75;;;8.90;91.40;;;;;;5115158;28;20036;-72
2023/11/07 03:59:31;;;;;;;1.77;0.70;;;8.90;91.40;;;;;;5079951;28;20399;-73
2023/11/07 04:01:58;;;;;;;1.52;0.77;;;9.00;91.30;;;;;;5097002;28;20089;-73
2023/11/07 04:04:24;;;;;;;1.15;0.50;;;9.00;91.30;;;;;;5115461;28;20039;-73
2023/11/07 04:06:49;;;;;;;2.08;0.60;;;9.00;91.30;;;;;;5096527;28;20036;-73
2023/11/07 04:09:17;;;;;;;0.68;0.40;;;9.00;91.30;;;;;;5115206;28;20126;-72
2023/11/07 04:11:43;;;;;;;0.98;0.50;;;9.00;91.30;;;;;;5096575;28;20067;-72
2023/11/07 04:14:10;;;;;;;1.10;0.70;;;9.00;91.30;;;;;;5114766;28;20051;-72
2023/11/07 04:16:36;;;;;;;0.60;0.50;;;9.00;91.40;;;;;;5097050;28;20559;-74
2023/11/07 04:19:02;;;;;;;1.50;0.80;;;9.00;91.40;;;;;;5096727;28;20146;-73
2023/11/07 04:21:28;;;;;;;1.67;0.63;;;9.00;91.40;;;;;;5096327;28;20040;-73
2023/11/07 04:23:54;;;;;;;2.13;0.77;;;9.00;91.50;;;;;;5115309;28;20047;-72
2023/11/07 04:26:19;;;;;;;1.20;0.70;;;9.00;91.40;;;;;;5114751;28;20131;-73
2023/11/07 04:28:46;;;;;;;1.98;0.90;;;9.00;91.40;;;;;;5115029;28;20105;-73
2023/11/07 04:31:12;;;;;;;1.67;0.73;;;9.00;91.40;;;;;;5115014;28;20507;-73
2023/11/07 04:33:38;;;;;;;2.30;0.75;;;9.00;91.40;;;;;;5114800;28;20050;-73
2023/11/07 04:36:05;;;;;;;1.15;0.60;;;9.00;91.40;;;;;;5096258;28;20044;-73
2023/11/07 04:38:31;;;;;;;1.48;0.85;;;9.00;91.50;;;;;;5096648;28;20366;-73
2023/11/07 04:40:57;;;;;;;1.65;0.80;;;9.00;91.50;;;;;;5114873;28;20047;-73
2023/11/07 04:43:23;;;;;;;2.97;0.90;;;9.00;91.50;;;;;;5096213;28;20040;-73
2023/11/07 04:45:49;;;;;;;2.10;0.90;;;9.00;91.50;;;;;;5079719;28;20066;-73
2023/11/07 04:48:15;;;;;;;1.15;0.60;;;9.00;91.50;;;;;;5096188;28;20043;-73
2023/11/07 04:50:40;;;;;;;1.33;0.85;;;8.90;91.50;;;;;;5114394;28;20046;-74
2023/11/07 04:53:07;;;;;;;2.42;1.15;;;8.90;91.50;;;;;;5114777;28;20039;-73
2023/11/07 04:55:33;;;;;;;1.30;0.80;;;9.00;91.50;;;;;;5095754;28;20036;-73
2023/11/07 04:58:01;;;;;;;1.70;0.90;;;8.90;91.50;;;;;;5095729;28;20369;-73
2023/11/07 05:00:26;;;;;;;1.70;0.85;;;9.00;91.50;;;;;;5114165;28;20046;-73
2023/11/07 05:02:52;;;;;;;1.83;1.10;;;9.00;91.50;;;;;;5079197;28;20039;-73
2023/11/07 05:05:18;;;;;;;2.40;0.90;;;9.00;91.50;;;;;;5096295;28;20035;-72
2023/11/07 05:07:45;;;;;;;1.58;0.95;;;9.00;91.50;;;;;;5114490;28;20040;-73
2023/11/07 05:10:12;;;;;;;1.75;0.90;;;9.00;91.50;;;;;;5114167;28;20485;-72
2023/11/07 05:12:38;;;;;;;0.80;0.63;;;9.00;91.50;;;;;;5096386;28;20051;-73
2023/11/07 05:15:05;;;;;;;1.00;0.70;;;9.00;91.80;;;;;;5114105;28;20115;-73
2023/11/07 05:17:32;;;;;;;1.80;1.00;;;9.00;91.50;;;;;;5095818;28;20040;-73
2023/11/07 05:19:57;;;;;;;2.05;0.93;;;9.00;91.50;;;;;;5095782;28;20043;-73
2023/11/07 05:22:24;;;;;;;2.78;0.90;;;9.00;91.50;;;;;;5095496;28;20058;-74
2023/11/07 05:24:51;;;;;;;2.15;0.90;;;9.00;91.50;;;;;;5096106;28;20040;-73
2023/11/07 05:27:17;;;;;;;2.17;0.90;;;9.00;91.50;;;;;;5114242;28;20110;-72
2023/11/07 05:29:44;;;;;;;1.88;0.93;;;9.00;91.50;;;;;;5114256;28;20051;-72
2023/11/07 05:32:11;;;;;;;2.25;1.00;;;9.00;91.50;;;;;;5114474;28;20050;-73
2023/11/07 05:34:39;;;;;;;2.15;1.20;;;9.00;91.50;;;;;;5079314;28;20036;-73
2023/11/07 05:37:05;;;;;;;3.42;1.35;;;9.00;91.50;;;;;;5113981;28;20047;-73
2023/11/07 05:39:31;;;;;;;1.65;1.00;;;9.00;91.50;;;;;;5113838;28;20040;-73
2023/11/07 05:41:58;;;;;;;1.75;0.90;;;9.00;91.50;;;;;;5114137;28;20096;-72
2023/11/07 05:44:24;;;;;;;2.22;0.88;;;9.00;91.50;;;;;;5113793;28;20067;-73
2023/11/07 05:46:51;;;;;;;1.65;0.80;;;9.00;91.50;;;;;;5094083;28;20123;-73
2023/11/07 05:49:16;;;;;;;1.83;1.08;;;9.00;91.60;;;;;;5095210;28;20406;-73
2023/11/07 05:51:42;;;;;;;1.55;1.05;;;9.00;91.60;;;;;;5114206;28;20044;-74
2023/11/07 05:54:09;;;;;;;1.38;0.90;;;9.00;91.60;;;;;;5095483;28;20072;-73
2023/11/07 05:56:36;;;;;;;2.08;1.10;;;8.90;91.60;;;;;;5113495;28;20508;-74
2023/11/07 05:59:20;;;;;;;1.95;1.10;;;9.00;91.60;;;;;;5061795;28;20036;-75
2023/11/07 06:01:46;;;;;;;1.65;1.00;;;9.00;91.60;;;;;;5080928;28;20052;-74
2023/11/07 06:04:30;;;;;;;1.67;1.00;;;9.00;91.60;;;;;;5095083;28;20111;-74
2023/11/07 06:06:57;;;;;;;2.10;0.80;;;9.00;91.60;;;;;;5076165;28;20032;-75
2023/11/07 06:09:22;;;;;;;1.90;1.17;;;9.00;91.60;;;;;;5095161;28;20063;-75
2023/11/07 06:11:48;;;;;;;2.35;1.05;;;9.00;91.60;;;;;;5094942;28;20096;-74
2023/11/07 06:14:16;;;;;;;3.03;1.10;;;8.90;91.60;;;;;;5113535;28;20487;-75
2023/11/07 06:16:41;;;;;;;2.33;1.02;;;8.90;91.60;;;;;;5078256;28;20105;-74
2023/11/07 06:19:10;;;;;;;2.33;1.00;;;9.00;91.60;;;;;;5095128;28;20044;-74
2023/11/07 06:21:37;;;;;;;1.17;0.90;;;9.00;91.60;;;;;;5095576;28;20039;-74
2023/11/07 06:24:03;;;;;;;2.35;0.95;;;9.00;91.60;;;;;;5113303;28;20038;-75
2023/11/07 06:26:30;;;;;;;1.48;0.93;;;9.00;91.60;;;;;;5114141;28;20505;-74
2023/11/07 06:28:57;;;;;;;1.77;0.98;;;9.00;91.60;;;;;;5113551;28;20036;-74
2023/11/07 06:31:24;;;;;;;2.13;1.10;;;9.00;91.60;;;;;;5113782;28;20043;-74
2023/11/07 06:33:50;;;;;;;1.42;0.98;;;9.00;91.60;;;;;;5113097;28;20464;-74
2023/11/07 06:36:15;;;;;;;1.33;0.95;;;9.00;91.60;;;;;;5113200;28;20058;-74
2023/11/07 06:38:41;;;;;;;1.65;0.98;;;9.00;91.60;;;;;;5095050;28;20040;-74
2023/11/07 06:41:07;;;;;;;1.35;1.00;;;9.00;91.60;;;;;;5113429;28;20071;-74
2023/11/07 06:43:35;;;;;;;2.60;1.13;;;9.00;91.60;;;;;;5113407;28;20039;-74
2023/11/07 06:46:02;;;;;;;1.67;1.00;;;9.10;91.70;;;;;;5096121;28;20397;-74
2023/11/07 06:48:28;;;;;;;1.83;1.00;;;9.10;91.70;;;;;;5095187;28;20145;-75
2023/11/07 06:50:56;;;;;;;1.42;0.80;;;9.00;91.60;;;;;;5113395;28;20473;-74
2023/11/07 06:53:21;;;;;;;2.28;0.90;;;9.00;91.60;;;;;;5113160;28;20075;-73
2023/11/07 06:55:47;;;;;;;1.00;0.90;;;9.00;91.60;;;;;;5112515;28;20070;-74
2023/11/07 06:58:13;;;;;;;3.35;1.10;;;9.10;91.60;;;;;;5077505;28;20040;-74
2023/11/07 07:00:39;;;;;;;2.28;1.05;;;9.10;91.60;;;;;;5077277;28;20036;-75
2023/11/07 07:03:06;;;;;;;1.42;0.90;;;9.10;91.60;;;;;;5112889;28;20047;-74
2023/11/07 07:05:31;;;;;;;1.73;1.02;;;9.10;91.60;;;;;;5077359;28;20035;-75
2023/11/07 07:07:57;;;;;;;0.90;0.70;;;9.10;91.60;;;;;;5112362;28;20043;-74
2023/11/07 07:10:23;;;;;;;1.65;0.98;;;9.10;91.60;;;;;;5094383;28;20044;-76
2023/11/07 07:12:49;;;;;;;2.20;1.10;;;9.20;91.60;;;;;;5094157;28;20124;-75
2023/11/07 07:15:15;;;;;;;1.10;0.85;;;9.20;91.60;;;;;;5113055;28;20070;-75
2023/11/07 07:17:41;;;;;;;1.08;0.85;;;9.20;91.60;;;;;;5094539;28;20032;-75
2023/11/07 07:20:14;;;;;;;1.67;1.10;;;9.20;91.60;;;;;;5115847;28;20043;-75
2023/11/07 07:22:41;;;;;;;1.08;0.98;;;9.20;91.50;;;;;;5097506;28;20051;-75
2023/11/07 07:25:08;;;;;;;2.05;1.13;;;9.30;91.50;;;;;;5097575;28;20489;-75
2023/11/07 07:27:34;;;;;;;2.42;1.10;;;9.20;91.50;;;;;;5098175;28;20040;-75
2023/11/07 07:30:01;;;;;;;2.67;1.40;;;9.20;91.50;;;;;;5115903;28;20039;-74
2023/11/07 07:32:27;;;;;;;2.70;1.50;;;9.30;91.50;;;;;;5115814;28;20067;-76
2023/11/07 07:34:52;;;;;;;2.25;1.00;;;9.30;91.50;;;;;;5097575;28;20062;-75
2023/11/07 07:37:20;;;;;;;4.15;1.20;;;9.30;91.50;;;;;;5115602;28;20036;-75
2023/11/07 07:39:47;;;;;;;3.05;1.48;;;9.30;91.50;;;;;;5098473;28;20466;-75
2023/11/07 07:42:17;;;;;;;2.10;1.35;;;9.30;91.50;;;;;;5116041;28;20466;-75
2023/11/07 07:44:43;;;;;;;3.05;1.38;;;9.30;91.50;;;;;;5116287;28;20088;-75
2023/11/07 07:47:08;;;;;;;1.95;1.25;;;9.30;91.40;;;;;;5115779;28;20489;-75
2023/11/07 07:49:36;;;;;;;1.98;1.23;;;9.30;91.40;;;;;;5115467;28;20091;-75
2023/11/07 07:52:08;;;;;;;2.10;1.40;;;9.30;91.50;;;;;;5080811;28;20036;-75
2023/11/07 07:54:37;;;;;;;2.30;1.30;;;9.30;91.50;;;;;;5115496;28;20032;-75
2023/11/07 07:57:05;;;;;;;1.58;1.10;;;9.50;91.50;;;;;;5116038;28;20093;-75
2023/11/07 07:59:31;;;;;;;2.80;1.23;;;9.30;91.50;;;;;;5115279;28;20184;-75
2023/11/07 08:01:57;;;;;;;1.52;1.10;;;9.40;91.50;;;;;;5097006;28;20054;-76
2023/11/07 08:04:25;;;;;;;1.95;1.30;;;9.40;91.40;;;;;;5115158;28;20039;-76
2023/11/07 08:06:51;;;;;;;1.38;1.05;;;9.40;91.40;;;;;;5097015;28;20051;-76
2023/11/07 08:09:18;;;;;;;2.63;1.27;;;9.40;91.40;;;;;;5115049;28;20035;-77
2023/11/07 08:11:47;;;;;;;2.10;1.40;;;9.40;91.40;;;;;;5096951;28;20039;-77
2023/11/07 08:14:14;;;;;;;2.60;1.58;;;9.40;91.30;;;;;;5097673;28;20466;-77
2023/11/07 08:16:41;;;;;;;1.95;1.30;;;9.40;91.60;;;;;;5097798;28;20063;-76
2023/11/07 08:19:09;;;;;;;1.95;1.17;;;9.40;91.30;;;;;;5096785;28;20040;-77
2023/11/07 08:21:37;;;;;;;1.65;1.20;;;9.50;91.30;;;;;;5115340;28;20046;-76
2023/11/07 08:24:04;;;;;;;2.50;1.20;;;9.50;91.30;;;;;;5097193;28;20458;-75
2023/11/07 08:26:29;;;;;;;1.65;1.20;;;9.50;91.30;;;;;;5096694;28;20044;-76
2023/11/07 08:28:55;;;;;;;1.83;1.20;;;9.50;91.30;;;;;;5114986;28;20036;-75
2023/11/07 08:31:21;;;;;;;1.13;0.93;;;9.50;91.30;;;;;;5112164;28;20406;-76
2023/11/07 08:33:49;;;;;;;2.80;1.40;;;9.50;91.30;;;;;;5115046;28;20043;-76
2023/11/07 08:36:17;;;;;;;1.35;1.02;;;9.60;91.30;;;;;;5096934;28;20481;-76
2023/11/07 08:38:45;;;;;;;1.90;1.17;;;9.70;91.30;;;;;;5096797;28;20090;-77
2023/11/07 08:41:11;;;;;;;1.23;0.90;;;9.60;91.30;;;;;;5097350;28;20050;-75
2023/11/07 08:43:37;;;;;;;2.10;1.23;;;9.60;91.20;;;;;;5096547;28;20039;-76
2023/11/07 08:46:03;;;;;;;1.60;0.93;;;9.60;91.20;;;;;;5114585;28;20036;-76
2023/11/07 08:48:30;;;;;;;3.17;1.13;;;9.70;91.30;;;;;;5115025;28;20502;-75
2023/11/07 08:50:56;;;;;;;1.42;1.13;;;9.70;91.20;;;;;;5114614;28;20040;-74
2023/11/07 08:53:22;;;;;;;1.92;1.10;;;9.80;91.20;;;;;;5115156;28;20512;-75
2023/11/07 08:55:50;;;;;;;1.75;1.00;;;9.80;91.20;;;;;;5115243;28;20036;-76
2023/11/07 08:58:16;;;;;;;1.33;0.82;;;9.80;91.10;;;;;;5096459;28;20044;-75
2023/11/07 09:00:44;;;;;;;1.23;1.00;;;9.80;91.10;;;;;;5096197;28;20047;-74
2023/11/07 09:03:10;;;;;;;1.80;1.00;;;9.80;91.10;;;;;;5079495;28;20477;-74
2023/11/07 09:05:35;;;;;;;3.00;1.20;;;9.90;91.10;;;;;;5096896;28;20047;-75
2023/11/07 09:08:04;;;;;;;1.75;1.00;;;9.90;91.00;;;;;;5096768;28;20497;-75
2023/11/07 09:10:31;;;;;;;0.70;0.70;;;9.90;91.00;;;;;;5096306;28;20044;-76
2023/11/07 09:12:57;;;;;;;2.70;1.00;;;10.00;91.00;;;;;;5114231;28;20028;-76
2023/11/07 09:15:25;;;;;;;1.95;1.10;;;10.00;90.90;;;;;;5095663;28;20093;-75
2023/11/07 09:17:51;;;;;;;1.23;1.10;;;10.00;90.90;;;;;;5096018;28;20508;-76
2023/11/07 09:20:18;;;;;;;1.80;0.80;;;10.00;90.90;;;;;;5095744;28;20040;-76
2023/11/07 09:22:46;;;;;;;1.75;1.02;;;10.00;90.90;;;;;;5114433;28;20065;-76
2023/11/07 09:25:12;;;;;;;1.10;0.85;;;10.10;90.90;;;;;;5114707;28;20070;-76
2023/11/07 09:27:38;;;;;;;1.90;0.93;;;10.00;90.90;;;;;;5095875;28;20436;-77
2023/11/07 09:30:08;;;;;;;1.05;0.73;;;10.10;90.90;;;;;;5114527;28;20100;-76
2023/11/07 09:32:36;;;;;;;1.20;0.93;;;10.10;90.90;;;;;;5113846;28;20039;-76
2023/11/07 09:35:04;;;;;;;1.45;1.00;;;10.10;90.80;;;;;;5114125;28;20035;-77
2023/11/07 09:37:30;;;;;;;1.27;0.88;;;10.10;90.80;;;;;;5078666;28;20032;-76
2023/11/07 09:39:55;;;;;;;1.40;1.00;;;10.20;90.80;;;;;;5114102;28;20062;-76
2023/11/07 09:42:21;;;;;;;1.48;0.90;;;10.20;90.80;;;;;;5114170;28;20481;-76
2023/11/07 09:44:49;;;;;;;1.45;1.00;;;10.20;90.70;;;;;;5113988;28;20031;-76
2023/11/07 09:47:14;;;;;;;2.03;1.00;;;10.30;90.70;;;;;;5111915;28;20097;-76
2023/11/07 09:49:41;;;;;;;1.60;1.05;;;10.20;90.60;;;;;;5095273;28;20063;-75
2023/11/07 09:52:07;;;;;;;2.80;1.00;;;10.30;90.70;;;;;;5113841;28;20477;-76
2023/11/07 09:54:34;;;;;;;1.23;0.90;;;10.30;90.70;;;;;;5113567;28;20063;-75
2023/11/07 09:57:08;;;;;;;1.33;1.00;;;10.40;90.70;;;;;;5095229;28;20512;-76
2023/11/07 09:59:41;;;;;;;1.20;0.90;;;10.30;90.60;;;;;;5112383;28;20097;-76
2023/11/07 10:02:07;;;;;;;1.02;0.88;;;10.40;90.60;;;;;;5113828;28;20094;-76
2023/11/07 10:04:38;;;;;;;1.33;0.80;;;10.40;90.60;;;;;;5078594;28;20047;-77
2023/11/07 10:07:04;;;;;;;;;;;10.40;90.60;;;;;;5112886;28;20053;-77
2023/11/07 10:09:31;;;;;;;0.77;0.63;;;10.40;90.60;;;;;;5113325;28;20006;-76
2023/11/07 10:11:58;;;;;;;1.00;0.90;;;10.50;90.60;;;;;;5095297;28;20036;-76
2023/11/07 10:14:26;;;;;;;0.80;0.80;;;10.60;90.50;;;;;;5113290;28;20046;-77
2023/11/07 10:16:54;;;;;;;2.15;1.00;;;10.60;90.50;;;;;;5113379;28;20118;-76
2023/11/07 10:19:22;;;;;;;2.25;1.08;;;10.80;90.50;;;;;;5095366;28;20177;-76
2023/11/07 10:21:49;;;;;;;1.45;0.80;;;10.70;90.40;;;;;;5113594;28;20393;-77
2023/11/07 10:24:16;;;;;;;1.50;0.77;;;10.70;90.40;;;;;;5078286;28;20047;-76
2023/11/07 10:26:58;;;;;;;1.52;0.93;;;10.80;90.40;;;;;;5094816;28;20048;-76
2023/11/07 10:29:25;;;;;;;1.75;1.00;;;10.80;90.30;;;;;;5094564;28;20047;-76
2023/11/07 10:32:09;;;;;;;1.40;1.05;;;10.90;90.20;;;;;;5113668;28;20039;-75
2023/11/07 10:34:35;;;;;;;1.10;0.90;;;11.00;90.10;;;;;;5110988;28;20054;-76
2023/11/07 10:37:04;;;;;;;1.60;1.08;;;11.00;90.00;;;;;;5113388;28;20039;-76
2023/11/07 10:39:32;;;;;;;2.40;1.25;;;11.00;90.10;;;;;;5113145;28;20043;-76
2023/11/07 10:42:16;;;;;;;1.58;1.00;;;11.00;90.00;;;;;;5113241;28;20405;-76
2023/11/07 10:44:44;;;;;;;1.00;0.80;;;11.00;90.00;;;;;;5094983;28;20043;-76
2023/11/07 10:47:09;;;;;;;1.17;0.90;;;11.00;90.00;;;;;;5077740;28;20088;-76
2023/11/07 10:49:36;;;;;;;0.70;0.70;;;11.00;90.00;;;;;;5094275;28;20044;-76
2023/11/07 10:52:05;;;;;;;1.50;0.90;;;11.00;90.00;;;;;;5113232;28;20424;-76
2023/11/07 10:54:31;;;;;;;1.80;0.80;;;11.00;90.00;;;;;;5094676;28;20040;-76
2023/11/07 10:57:02;;;;;;;0.70;0.70;;;11.10;90.00;;;;;;5094396;28;20074;-76
2023/11/07 10:59:29;;;;;;;;;;;11.10;89.90;;;;;;5113146;28;20036;-76
2023/11/07 11:02:00;;;;;;;1.63;0.70;;;11.20;89.80;;;;;;5112652;28;19915;-75
2023/11/07 11:04:28;;;;;;;1.13;0.70;;;11.20;89.80;;;;;;5112891;28;20062;-77
2023/11/07 11:07:01;;;;;;;1.40;0.90;;;11.30;89.70;;;;;;5077233;28;20096;-77
2023/11/07 11:09:28;;;;;;;0.98;0.80;;;11.30;89.60;;;;;;5094791;28;20466;-76
2023/11/07 11:11:58;;;;;;;0.50;0.50;;;11.30;89.50;;;;;;5077440;28;20050;-77
2023/11/07 11:14:25;;;;;;;1.57;0.70;;;11.40;89.50;;;;;;5094294;28;20032;-76
2023/11/07 11:16:55;;;;;;;0.60;0.50;;;11.50;89.40;;;;;;5094304;28;20306;-76
2023/11/07 11:19:34;;;;;;;1.80;0.80;;;11.60;89.10;;;;;;5094222;28;20036;-76
2023/11/07 11:22:20;;;;;;;0.57;0.40;;;11.70;88.90;;;;;;5077676;28;20404;-76
2023/11/07 11:25:15;;;;;;;1.10;0.60;;;11.70;88.60;;;;;;5094056;28;20116;-76
2023/11/07 11:27:48;;;;;;;0.75;0.60;;;11.70;88.60;;;;;;5096887;28;20040;-76
2023/11/07 11:30:14;;;;;;;0.43;0.43;;;11.80;88.60;;;;;;5110949;28;20467;-76
2023/11/07 11:32:43;;;;;;;1.58;0.80;;;11.80;88.60;;;;;;5112277;28;20114;-76
2023/11/07 11:35:28;;;;;;;0.85;0.55;;;11.90;88.60;;;;;;5112760;28;20135;-76
2023/11/07 11:38:15;;;;;;;0.63;0.50;;;12.00;88.50;;;;;;5061061;28;20036;-76
2023/11/07 11:40:56;;;;;;;0.52;0.52;;;12.10;88.30;;;;;;5092579;28;20035;-77
2023/11/07 11:43:25;;;;;;;1.38;0.60;;;12.10;88.10;;;;;;5112142;28;20115;-76
2023/11/07 11:45:55;;;;;;;0.60;0.55;;;12.20;88.00;;;;;;5093746;28;20485;-76
2023/11/07 11:49:00;;;;;;;0.82;0.68;;;12.30;87.70;;;;;;5094571;28;20051;-76
2023/11/07 11:51:31;;;;;;;1.85;0.70;;;12.30;87.60;;;;;;5096981;28;20039;-77
2023/11/07 11:53:57;;;;;;;0.50;0.43;;;12.20;87.70;;;;;;5094261;28;20036;-76
2023/11/07 11:56:23;;;;;;;0.60;0.52;;;12.20;87.90;;;;;;5112296;28;20405;-76
2023/11/07 11:59:06;;;;;;;0.75;0.60;;;12.20;87.80;;;;;;5076720;28;20047;-77
2023/11/07 12:01:49;;;;;;;0.43;0.40;;;12.20;87.90;;;;;;5110739;28;20039;-76
2023/11/07 12:04:33;;;;;;;1.00;0.70;;;12.20;87.90;;;;;;5111561;28;20100;-76
2023/11/07 12:07:22;;;;;;;1.27;0.70;;;12.30;87.80;;;;;;5115397;28;20090;-76
2023/11/07 12:09:51;;;;;;;2.15;0.70;;;12.10;87.70;;;;;;5095347;28;20450;-76
2023/11/07 12:12:18;;;;;;;0.85;0.73;;;12.10;87.80;;;;;;5097514;28;20036;-76
2023/11/07 12:14:51;;;;;;;0.65;0.63;;;12.20;87.90;;;;;;5113436;28;20115;-77
2023/11/07 12:17:17;;;;;;;1.15;0.60;;;12.10;87.90;;;;;;5113662;28;20063;-77
2023/11/07 12:19:44;;;;;;;1.45;0.80;;;12.20;87.90;;;;;;5094791;28;20046;-76
2023/11/07 12:22:10;;;;;;;1.23;0.82;;;12.20;87.70;;;;;;5115102;28;20535;-77
2023/11/07 12:24:37;;;;;;;0.57;0.55;;;12.30;87.60;;;;;;5096785;28;20050;-76
2023/11/07 12:27:03;;;;;;;0.90;0.68;;;12.30;87.60;;;;;;5079831;28;20050;-76
2023/11/07 12:29:30;;;;;;;2.10;0.80;;;12.40;87.40;;;;;;5062936;28;20036;-75
2023/11/07 12:31:56;;;;;;;2.17;0.70;;;12.50;87.20;;;;;;5096656;28;20078;-76
2023/11/07 12:34:39;;;;;;;1.90;0.70;;;12.50;87.00;;;;;;5115152;28;20486;-76
2023/11/07 12:37:10;;;;;;;0.60;0.40;;;12.50;86.90;;;;;;5113482;28;20036;-77
2023/11/07 12:39:36;;;;;;;0.75;0.63;;;12.50;86.80;;;;;;5096458;28;20097;-77
2023/11/07 12:42:02;;;;;;;1.45;0.80;;;12.60;86.80;;;;;;5114784;28;20063;-76
2023/11/07 12:44:28;;;;;;;0.77;0.77;;;12.60;86.70;;;;;;5096650;28;20078;-76
2023/11/07 12:46:54;;;;;;;1.38;0.80;;;12.70;86.60;;;;;;5096665;28;20067;-76
2023/11/07 12:49:20;;;;;;;0.88;0.80;;;12.70;86.40;;;;;;5079510;28;20047;-76
2023/11/07 12:51:47;;;;;;;1.02;0.80;;;12.80;86.40;;;;;;5114875;28;20043;-77
2023/11/07 12:54:13;;;;;;;0.85;0.85;;;12.80;86.30;;;;;;5096375;28;20066;-75
2023/11/07 12:56:42;;;;;;;0.93;0.80;;;12.80;86.10;;;;;;5114679;28;20126;-75